Alvordton, Ohio
Current Conditions -  °F | °C
As of 1:35 AM on Saturday 25 Oct 2014 (Local Time) from KUSE Reporting Station
Haze Haze  
Wind Chill: 46°   Ceiling: Unl
Heat Index: 48°   Visibility: 3mi
Dew Point: 48°   Wind: 5mph
Humidity: 100%   Direction: 220°SW
Pressure: 29.95"   Gusts: NA
Location:  41.67°N, 84.44°W
Report Text: KUSE 250535Z AUTO 22004KT 3SM BR CLR 09/09 A2995 RMK AO2
Loading
Personal Weather Stations






























Interactive Weather Map New forecast layout! Learn more

10-Day Weather Forecast

Advertisements
Track Severe Weather on mobile